createdAt,value
2018-08-22T00:02:20.644Z,23.15
2018-08-22T00:04:46.975Z,23.09
2018-08-22T00:07:13.307Z,23.08
2018-08-22T00:09:39.656Z,23.10
2018-08-22T00:12:06.017Z,23.09
2018-08-22T00:14:32.363Z,23.09
2018-08-22T00:16:58.717Z,23.07
2018-08-22T00:19:25.056Z,23.07
2018-08-22T00:21:51.370Z,23.03
2018-08-22T00:24:17.932Z,23.04
2018-08-22T00:26:44.306Z,23.03
2018-08-22T00:29:10.771Z,23.05
2018-08-22T00:31:37.048Z,23.06
2018-08-22T00:34:03.455Z,23.09
2018-08-22T00:36:29.845Z,23.09
2018-08-22T00:38:56.226Z,22.96
2018-08-22T00:41:22.652Z,22.89
2018-08-22T00:43:49.034Z,22.99
2018-08-22T00:46:15.448Z,23.01
2018-08-22T00:48:41.848Z,23.00
2018-08-22T00:51:08.182Z,23.00
2018-08-22T00:53:34.567Z,23.00
2018-08-22T00:56:00.968Z,22.99
2018-08-22T00:58:27.302Z,22.99
2018-08-22T01:00:53.648Z,23.02
2018-08-22T01:03:20.206Z,22.94
2018-08-22T01:05:46.567Z,22.96
2018-08-22T01:08:12.897Z,23.10
2018-08-22T01:10:39.222Z,22.96
2018-08-22T01:13:05.575Z,23.04
2018-08-22T01:15:31.938Z,22.95
2018-08-22T01:17:58.298Z,22.90
2018-08-22T01:20:24.613Z,22.96
2018-08-22T01:22:50.986Z,22.95
2018-08-22T01:25:17.309Z,22.87
2018-08-22T01:27:43.675Z,22.95
2018-08-22T01:30:10.088Z,22.89
2018-08-22T01:32:36.475Z,22.80
2018-08-22T01:35:02.844Z,22.79
2018-08-22T01:37:29.205Z,22.82
2018-08-22T01:39:55.565Z,22.76
2018-08-22T01:42:21.934Z,22.74
2018-08-22T01:44:48.329Z,22.79
2018-08-22T01:47:14.761Z,22.85
2018-08-22T01:49:41.266Z,22.83
2018-08-22T01:52:07.677Z,22.77
2018-08-22T01:54:34.006Z,22.78
2018-08-22T01:57:00.370Z,22.78
2018-08-22T01:59:26.697Z,22.86
2018-08-22T02:01:53.072Z,22.77
2018-08-22T02:04:19.405Z,22.71
2018-08-22T02:06:45.790Z,22.72
2018-08-22T02:09:12.111Z,22.74
2018-08-22T02:11:38.417Z,22.70
2018-08-22T02:14:04.747Z,22.66
2018-08-22T02:16:31.106Z,22.70
2018-08-22T02:18:57.482Z,22.67
2018-08-22T02:21:23.811Z,22.68
2018-08-22T02:23:50.185Z,22.76
2018-08-22T02:26:16.502Z,22.67
2018-08-22T02:28:42.832Z,22.72
2018-08-22T02:31:09.203Z,22.66
2018-08-22T02:33:35.591Z,22.62
2018-08-22T02:36:01.979Z,22.62
2018-08-22T02:38:28.326Z,22.62
2018-08-22T02:40:54.688Z,22.62
2018-08-22T02:43:21.023Z,22.64
2018-08-22T02:45:47.358Z,22.60
2018-08-22T02:48:13.682Z,22.59
2018-08-22T02:50:40.006Z,22.57
2018-08-22T02:53:06.342Z,22.60
2018-08-22T02:55:32.680Z,22.57
2018-08-22T02:57:59.006Z,22.58
2018-08-22T03:00:25.441Z,22.62
2018-08-22T03:02:51.798Z,22.52
2018-08-22T03:05:18.129Z,22.55
2018-08-22T03:07:44.470Z,22.53
2018-08-22T03:10:10.871Z,22.72
2018-08-22T03:12:37.282Z,22.66
2018-08-22T03:15:03.644Z,22.54
2018-08-22T03:17:29.969Z,22.55
2018-08-22T03:19:56.290Z,22.66
2018-08-22T03:22:22.723Z,22.61
2018-08-22T03:24:49.115Z,22.63
2018-08-22T03:27:15.480Z,22.71
2018-08-22T03:29:41.811Z,22.84
2018-08-22T03:32:08.127Z,22.82
2018-08-22T03:34:34.725Z,22.82
2018-08-22T03:37:01.209Z,22.84
2018-08-22T03:39:27.636Z,22.87
2018-08-22T03:41:54.064Z,22.83
2018-08-22T03:44:20.451Z,22.84
2018-08-22T03:46:46.845Z,22.95
2018-08-22T03:49:13.183Z,22.94
2018-08-22T03:51:39.610Z,22.92
2018-08-22T03:54:06.120Z,22.99
2018-08-22T03:56:32.486Z,22.99
2018-08-22T03:58:58.957Z,22.94
2018-08-22T04:01:25.547Z,22.94
2018-08-22T04:03:51.980Z,23.08
2018-08-22T04:06:18.388Z,22.94
2018-08-22T04:08:44.728Z,23.07
2018-08-22T04:11:11.055Z,23.06
2018-08-22T04:13:37.439Z,23.07
2018-08-22T04:16:03.805Z,23.04
2018-08-22T04:18:30.251Z,22.99
2018-08-22T04:20:56.590Z,23.03
2018-08-22T04:23:22.972Z,22.98
2018-08-22T04:25:49.371Z,22.99
2018-08-22T04:28:15.726Z,22.97
2018-08-22T04:30:42.045Z,22.89
2018-08-22T04:33:08.377Z,22.93
2018-08-22T04:35:34.749Z,22.90
2018-08-22T04:38:01.101Z,22.94
2018-08-22T04:40:27.555Z,22.93
2018-08-22T04:42:53.882Z,22.84
2018-08-22T04:45:20.244Z,23.08
2018-08-22T04:47:46.587Z,23.00
2018-08-22T04:50:12.907Z,23.02
2018-08-22T04:52:39.276Z,23.00
2018-08-22T04:55:05.610Z,22.99
2018-08-22T04:57:31.973Z,23.03
2018-08-22T04:59:58.402Z,23.07
2018-08-22T05:02:24.767Z,23.11
2018-08-22T05:04:51.165Z,23.08
2018-08-22T05:07:17.496Z,23.10
2018-08-22T05:09:43.815Z,23.13
2018-08-22T05:12:10.195Z,23.25
2018-08-22T05:14:36.527Z,23.21
2018-08-22T05:17:02.886Z,23.25
2018-08-22T05:19:29.222Z,23.25
2018-08-22T05:21:55.655Z,23.24
2018-08-22T05:24:22.014Z,23.31
2018-08-22T05:26:48.377Z,23.43
2018-08-22T05:29:14.733Z,23.37
2018-08-22T05:31:41.109Z,23.41
2018-08-22T05:34:07.466Z,23.46
2018-08-22T05:36:33.809Z,23.47
2018-08-22T05:39:00.203Z,23.48
2018-08-22T05:41:26.552Z,23.54
2018-08-22T05:43:52.974Z,23.71
2018-08-22T05:46:19.297Z,23.70
2018-08-22T05:48:45.718Z,23.72
2018-08-22T05:51:12.091Z,23.73
2018-08-22T05:53:38.451Z,23.74
2018-08-22T05:56:04.829Z,23.78
2018-08-22T05:58:31.254Z,23.81
2018-08-22T06:00:57.652Z,23.82
2018-08-22T06:03:24.059Z,23.89
2018-08-22T06:05:50.414Z,23.96
2018-08-22T06:08:16.784Z,24.01
2018-08-22T06:10:43.223Z,23.97
2018-08-22T06:13:09.578Z,24.00
2018-08-22T06:15:35.965Z,24.04
2018-08-22T06:18:02.321Z,24.11
2018-08-22T06:20:28.722Z,24.14
2018-08-22T06:22:55.078Z,24.14
2018-08-22T06:25:21.514Z,24.15
2018-08-22T06:27:47.943Z,24.23
2018-08-22T06:30:14.355Z,24.29
2018-08-22T06:32:40.814Z,24.29
2018-08-22T06:35:07.238Z,24.37
2018-08-22T06:37:33.784Z,24.28
2018-08-22T06:40:00.170Z,24.38
2018-08-22T06:42:26.542Z,24.37
2018-08-22T06:44:52.975Z,24.40
2018-08-22T06:47:19.508Z,24.45
2018-08-22T06:49:45.908Z,24.42
2018-08-22T06:52:12.243Z,24.43
2018-08-22T06:54:38.607Z,24.52
2018-08-22T06:57:05.002Z,24.47
2018-08-22T06:59:31.372Z,24.60
2018-08-22T07:01:57.800Z,24.59
2018-08-22T07:04:24.163Z,24.48
2018-08-22T07:06:50.622Z,24.56
2018-08-22T07:09:17.173Z,24.60
2018-08-22T07:11:44.007Z,24.73
2018-08-22T07:14:10.426Z,24.75
2018-08-22T07:16:36.812Z,24.84
2018-08-22T07:19:03.140Z,24.83
2018-08-22T07:21:29.490Z,24.87
2018-08-22T07:23:55.905Z,24.91
2018-08-22T07:26:22.338Z,24.91
2018-08-22T07:28:48.671Z,24.99
2018-08-22T07:31:15.060Z,24.93
2018-08-22T07:33:41.421Z,24.92
2018-08-22T07:36:07.827Z,24.97
2018-08-22T07:38:34.178Z,25.00
2018-08-22T07:41:00.586Z,25.10
2018-08-22T07:43:27.024Z,25.19
2018-08-22T07:45:53.415Z,25.16
2018-08-22T07:48:19.790Z,25.18
2018-08-22T07:50:46.162Z,25.23
2018-08-22T07:53:12.574Z,25.33
2018-08-22T07:55:38.932Z,25.35
2018-08-22T07:58:05.331Z,25.33
2018-08-22T08:00:31.702Z,25.30
2018-08-22T08:02:58.081Z,25.33
2018-08-22T08:05:24.461Z,25.35
2018-08-22T08:07:50.822Z,25.35
2018-08-22T08:10:17.336Z,25.32
2018-08-22T08:12:43.701Z,25.43
2018-08-22T08:15:10.129Z,25.39
2018-08-22T08:17:36.511Z,25.47
2018-08-22T08:20:02.960Z,25.42
2018-08-22T08:22:29.385Z,25.37
2018-08-22T08:24:55.722Z,25.31
2018-08-22T08:27:22.173Z,25.25
2018-08-22T08:29:48.581Z,25.29
2018-08-22T08:32:14.972Z,25.27
2018-08-22T08:34:41.377Z,25.17
2018-08-22T08:37:07.879Z,25.27
2018-08-22T08:39:34.258Z,25.40
2018-08-22T08:42:00.746Z,25.24
2018-08-22T08:44:27.121Z,25.14
2018-08-22T08:46:53.579Z,25.18
2018-08-22T08:49:20.012Z,25.19
2018-08-22T08:51:46.476Z,25.20
2018-08-22T08:54:12.852Z,25.21
2018-08-22T08:56:39.342Z,25.23
2018-08-22T08:59:05.800Z,25.22
2018-08-22T09:01:32.204Z,25.16
2018-08-22T09:03:58.681Z,25.11
2018-08-22T09:06:25.023Z,25.09
2018-08-22T09:08:51.508Z,25.20
2018-08-22T09:11:17.997Z,25.14
2018-08-22T09:13:44.587Z,25.11
2018-08-22T09:16:11.003Z,25.00
2018-08-22T09:18:37.383Z,24.97
2018-08-22T09:21:03.807Z,24.91
2018-08-22T09:23:30.194Z,24.93
2018-08-22T09:25:57.280Z,24.81
2018-08-22T09:28:23.660Z,24.79
2018-08-22T09:30:50.042Z,24.91
2018-08-22T09:33:16.555Z,24.99
2018-08-22T09:35:42.999Z,24.82
2018-08-22T09:38:09.414Z,24.89
2018-08-22T09:40:35.810Z,24.84
2018-08-22T09:43:02.288Z,25.03
2018-08-22T09:45:28.823Z,25.02
2018-08-22T09:47:55.170Z,24.88
2018-08-22T09:50:21.520Z,24.87
2018-08-22T09:52:47.909Z,24.88
2018-08-22T09:55:14.266Z,24.95
2018-08-22T09:57:40.656Z,24.96
2018-08-22T10:00:07.127Z,24.90
2018-08-22T10:02:33.496Z,25.02
2018-08-22T10:04:59.879Z,25.07
2018-08-22T10:07:26.357Z,25.02
2018-08-22T10:09:52.680Z,25.05
2018-08-22T10:12:19.207Z,24.89
2018-08-22T10:14:45.589Z,25.02
2018-08-22T10:17:11.951Z,24.77
2018-08-22T10:19:38.474Z,24.84
2018-08-22T10:22:05.376Z,24.82
2018-08-22T10:24:31.779Z,24.84
2018-08-22T10:26:58.244Z,24.81
2018-08-22T10:29:24.666Z,24.68
2018-08-22T10:31:51.053Z,24.74
2018-08-22T10:34:17.489Z,24.76
2018-08-22T10:36:43.990Z,24.86
2018-08-22T10:39:10.355Z,24.81
2018-08-22T10:41:36.839Z,24.75
2018-08-22T10:44:03.191Z,24.73
2018-08-22T10:46:29.585Z,24.72
2018-08-22T10:48:55.987Z,24.72
2018-08-22T10:51:22.417Z,25.01
2018-08-22T10:53:48.826Z,24.80
2018-08-22T10:56:15.231Z,24.82
2018-08-22T10:58:41.717Z,24.77
2018-08-22T11:01:08.080Z,24.73
2018-08-22T11:03:34.478Z,24.87
2018-08-22T11:06:00.877Z,24.98
2018-08-22T11:08:27.719Z,24.86
2018-08-22T11:10:54.112Z,24.92
2018-08-22T11:13:20.521Z,24.89
2018-08-22T11:15:46.942Z,24.87
2018-08-22T11:18:13.316Z,24.86
2018-08-22T11:20:39.726Z,24.78
2018-08-22T11:23:06.183Z,24.71
2018-08-22T11:25:32.637Z,24.75
2018-08-22T11:27:59.019Z,24.80
2018-08-22T11:30:25.415Z,24.91
2018-08-22T11:32:51.828Z,24.81
2018-08-22T11:35:18.337Z,24.77
2018-08-22T11:37:44.849Z,24.88
2018-08-22T11:40:11.240Z,24.87
2018-08-22T11:42:37.641Z,24.86
2018-08-22T11:45:04.000Z,24.72
2018-08-22T11:47:30.554Z,24.90
2018-08-22T11:49:56.916Z,24.85
2018-08-22T11:52:23.308Z,24.75
2018-08-22T11:54:49.654Z,24.76
2018-08-22T11:57:16.092Z,24.68
2018-08-22T11:59:42.533Z,24.85
2018-08-22T12:02:08.948Z,24.87
2018-08-22T12:04:35.375Z,24.91
2018-08-22T12:07:03.619Z,24.95
2018-08-22T12:09:30.101Z,25.03
2018-08-22T12:11:56.479Z,24.93
2018-08-22T12:14:22.834Z,25.05
2018-08-22T12:16:49.277Z,25.08
2018-08-22T12:19:15.623Z,25.22
2018-08-22T12:21:41.973Z,25.21
2018-08-22T12:24:08.329Z,25.26
2018-08-22T12:26:34.711Z,25.29
2018-08-22T12:29:01.184Z,25.32
2018-08-22T12:31:27.595Z,25.40
2018-08-22T12:33:53.927Z,25.45
2018-08-22T12:36:20.289Z,25.42
2018-08-22T12:38:49.604Z,25.53
2018-08-22T12:41:16.196Z,25.54
2018-08-22T12:43:42.626Z,25.57
2018-08-22T12:46:08.957Z,25.58
2018-08-22T12:48:35.391Z,25.59
2018-08-22T12:51:01.767Z,25.67
2018-08-22T12:53:28.120Z,25.63
2018-08-22T12:55:54.616Z,25.78
2018-08-22T12:58:20.987Z,25.70
2018-08-22T13:00:47.454Z,25.78
2018-08-22T13:03:13.984Z,25.61
2018-08-22T13:05:40.558Z,25.69
2018-08-22T13:08:07.012Z,25.76
2018-08-22T13:10:33.421Z,25.91
2018-08-22T13:12:59.782Z,25.79
2018-08-22T13:15:26.296Z,25.70
2018-08-22T13:17:52.656Z,25.64
2018-08-22T13:20:19.142Z,25.81
2018-08-22T13:22:45.504Z,25.83
2018-08-22T13:25:11.877Z,25.88
2018-08-22T13:27:38.244Z,25.94
2018-08-22T13:30:04.731Z,25.97
2018-08-22T13:32:31.199Z,25.87
2018-08-22T13:34:57.606Z,25.91
2018-08-22T13:37:24.148Z,25.83
2018-08-22T13:39:50.592Z,25.72
2018-08-22T13:42:17.107Z,25.75
2018-08-22T13:44:43.443Z,25.89
2018-08-22T13:47:09.816Z,25.82
2018-08-22T13:49:36.202Z,25.76
2018-08-22T13:52:02.639Z,25.69
2018-08-22T13:54:29.178Z,25.81
2018-08-22T13:56:55.535Z,25.80
2018-08-22T13:59:23.004Z,25.92
2018-08-22T14:01:49.462Z,25.93
2018-08-22T14:04:17.467Z,25.97
2018-08-22T14:06:43.816Z,26.04
2018-08-22T14:09:10.243Z,26.14
2018-08-22T14:11:36.571Z,26.01
2018-08-22T14:14:02.996Z,26.05
2018-08-22T14:16:30.000Z,26.19
2018-08-22T14:18:56.387Z,26.21
2018-08-22T14:21:22.751Z,26.00
2018-08-22T14:23:49.118Z,26.15
2018-08-22T14:26:15.493Z,26.13
2018-08-22T14:28:41.852Z,26.03
2018-08-22T14:31:08.227Z,25.99
2018-08-22T14:33:34.668Z,26.09
2018-08-22T14:36:01.022Z,26.07
2018-08-22T14:38:27.439Z,26.11
2018-08-22T14:40:53.792Z,26.07
2018-08-22T14:43:20.174Z,26.14
2018-08-22T14:45:46.531Z,26.07
2018-08-22T14:48:12.901Z,26.06
2018-08-22T14:50:39.304Z,26.14
2018-08-22T14:53:05.651Z,25.98
2018-08-22T14:55:32.051Z,25.90
2018-08-22T14:57:58.531Z,26.03
2018-08-22T15:00:24.907Z,25.94
2018-08-22T15:02:51.518Z,25.90
2018-08-22T15:05:17.622Z,25.96
2018-08-22T15:07:43.959Z,25.94
2018-08-22T15:10:10.382Z,25.89
2018-08-22T15:12:36.808Z,25.92
2018-08-22T15:15:03.128Z,25.92
2018-08-22T15:17:29.517Z,25.87
2018-08-22T15:19:55.927Z,25.91
2018-08-22T15:22:22.282Z,25.86
2018-08-22T15:24:48.618Z,25.86
2018-08-22T15:27:14.979Z,25.86
2018-08-22T15:29:41.521Z,25.82
2018-08-22T15:32:07.977Z,25.87
2018-08-22T15:34:34.307Z,25.83
2018-08-22T15:37:01.460Z,25.96
2018-08-22T15:39:27.822Z,25.87
2018-08-22T15:41:54.185Z,25.86
2018-08-22T15:44:20.631Z,25.74
2018-08-22T15:46:47.024Z,25.85
2018-08-22T15:49:13.419Z,25.89
2018-08-22T15:51:39.840Z,25.93
2018-08-22T15:54:06.280Z,25.90
2018-08-22T15:56:32.646Z,25.89
2018-08-22T15:58:59.100Z,25.85
2018-08-22T16:01:25.577Z,25.79
2018-08-22T16:03:52.011Z,25.76
2018-08-22T16:06:18.549Z,25.78
2018-08-22T16:08:44.928Z,25.81
2018-08-22T16:11:11.311Z,25.77
2018-08-22T16:13:37.677Z,25.78
2018-08-22T16:16:04.127Z,25.78
2018-08-22T16:18:30.610Z,25.81
2018-08-22T16:20:57.053Z,25.72
2018-08-22T16:23:23.416Z,25.66
2018-08-22T16:25:49.776Z,25.58
2018-08-22T16:28:16.280Z,25.79
2018-08-22T16:30:42.717Z,25.71
2018-08-22T16:33:09.024Z,25.65
2018-08-22T16:35:35.437Z,25.70
2018-08-22T16:38:01.815Z,25.71
2018-08-22T16:40:28.165Z,25.67
2018-08-22T16:42:54.547Z,25.59
2018-08-22T16:45:21.085Z,25.63
2018-08-22T16:47:47.470Z,25.59
2018-08-22T16:50:13.944Z,25.59
2018-08-22T16:52:40.304Z,25.58
2018-08-22T16:55:06.670Z,25.58
2018-08-22T16:57:33.028Z,25.59
2018-08-22T16:59:59.443Z,25.57
2018-08-22T17:02:25.971Z,25.56
2018-08-22T17:04:52.430Z,25.63
2018-08-22T17:07:18.829Z,25.67
2018-08-22T17:09:45.161Z,25.72
2018-08-22T17:12:11.511Z,25.74
2018-08-22T17:14:37.838Z,25.80
2018-08-22T17:17:04.200Z,25.80
2018-08-22T17:19:30.687Z,25.84
2018-08-22T17:21:57.086Z,25.86
2018-08-22T17:24:23.429Z,25.88
2018-08-22T17:26:49.779Z,25.91
2018-08-22T17:29:16.135Z,25.92
2018-08-22T17:31:42.463Z,25.96
2018-08-22T17:34:08.843Z,25.96
2018-08-22T17:36:35.269Z,25.92
2018-08-22T17:39:01.651Z,25.92
2018-08-22T17:41:27.974Z,25.91
2018-08-22T17:43:54.413Z,25.96
2018-08-22T17:46:20.785Z,26.02
2018-08-22T17:48:47.113Z,26.01
2018-08-22T17:51:13.487Z,26.03
2018-08-22T17:53:39.879Z,26.01
2018-08-22T17:56:06.239Z,26.02
2018-08-22T17:58:32.632Z,26.00
2018-08-22T18:00:58.967Z,25.97
2018-08-22T18:03:25.322Z,25.94
2018-08-22T18:05:51.769Z,25.95
2018-08-22T18:08:18.120Z,25.96
2018-08-22T18:10:44.538Z,25.95
2018-08-22T18:13:10.882Z,25.92
2018-08-22T18:15:37.269Z,25.90
2018-08-22T18:18:03.626Z,25.89
2018-08-22T18:20:30.020Z,25.85
2018-08-22T18:22:56.373Z,25.84
2018-08-22T18:25:22.713Z,25.85
2018-08-22T18:27:49.065Z,25.89
2018-08-22T18:30:15.443Z,25.84
2018-08-22T18:32:41.877Z,25.85
2018-08-22T18:35:08.293Z,25.87
2018-08-22T18:37:34.744Z,25.84
2018-08-22T18:40:01.103Z,25.87
2018-08-22T18:42:27.491Z,25.87
2018-08-22T18:44:53.854Z,25.84
2018-08-22T18:47:20.203Z,25.84
2018-08-22T18:49:46.551Z,25.83
2018-08-22T18:52:12.882Z,25.82
2018-08-22T18:54:39.264Z,25.81
2018-08-22T18:57:05.597Z,25.84
2018-08-22T18:59:31.976Z,25.82
2018-08-22T19:01:58.364Z,25.82
2018-08-22T19:04:24.720Z,25.75
2018-08-22T19:06:51.068Z,25.77
2018-08-22T19:09:17.419Z,25.71
2018-08-22T19:11:43.846Z,25.74
2018-08-22T19:14:10.227Z,25.73
2018-08-22T19:16:36.576Z,25.69
2018-08-22T19:19:02.928Z,25.72
2018-08-22T19:21:29.276Z,25.68
2018-08-22T19:23:55.647Z,25.66
2018-08-22T19:26:22.034Z,25.62
2018-08-22T19:28:48.421Z,25.58
2018-08-22T19:31:14.855Z,25.61
2018-08-22T19:33:41.204Z,25.53
2018-08-22T19:36:07.533Z,25.53
2018-08-22T19:38:33.938Z,25.49
2018-08-22T19:41:00.293Z,25.53
2018-08-22T19:43:26.647Z,25.48
2018-08-22T19:45:53.006Z,25.45
2018-08-22T19:48:19.336Z,25.45
2018-08-22T19:50:45.700Z,25.39
2018-08-22T19:53:12.131Z,25.39
2018-08-22T19:55:38.487Z,25.38
2018-08-22T19:58:04.820Z,25.32
2018-08-22T20:00:31.227Z,25.33
2018-08-22T20:02:57.623Z,25.29
2018-08-22T20:05:24.012Z,25.25
2018-08-22T20:07:50.365Z,25.24
2018-08-22T20:10:16.716Z,25.23
2018-08-22T20:12:43.084Z,25.22
2018-08-22T20:15:09.434Z,25.17
2018-08-22T20:17:35.849Z,25.18
2018-08-22T20:20:02.218Z,25.14
2018-08-22T20:22:28.573Z,25.11
2018-08-22T20:24:54.937Z,25.07
2018-08-22T20:27:21.374Z,25.06
2018-08-22T20:29:47.807Z,25.07
2018-08-22T20:32:14.415Z,25.07
2018-08-22T20:34:40.781Z,25.05
2018-08-22T20:37:07.229Z,25.06
2018-08-22T20:39:33.604Z,25.02
2018-08-22T20:41:59.954Z,25.05
2018-08-22T20:44:26.428Z,25.05
2018-08-22T20:46:52.818Z,24.99
2018-08-22T20:49:19.177Z,24.95
2018-08-22T20:51:45.528Z,25.02
2018-08-22T20:54:11.856Z,25.03
2018-08-22T20:56:38.186Z,24.99
2018-08-22T20:59:04.516Z,24.93
2018-08-22T21:01:30.877Z,24.93
2018-08-22T21:03:57.262Z,24.93
2018-08-22T21:06:23.615Z,24.94
2018-08-22T21:08:49.960Z,24.92
2018-08-22T21:11:16.338Z,24.93
2018-08-22T21:13:42.665Z,24.83
2018-08-22T21:16:09.034Z,24.81
2018-08-22T21:18:35.476Z,24.81
2018-08-22T21:21:01.824Z,24.80
2018-08-22T21:23:28.156Z,24.80
2018-08-22T21:25:54.512Z,24.80
2018-08-22T21:28:20.988Z,24.81
2018-08-22T21:30:47.367Z,24.77
2018-08-22T21:33:13.757Z,24.75
2018-08-22T21:35:40.131Z,24.74
2018-08-22T21:38:06.540Z,24.74
2018-08-22T21:40:32.882Z,24.73
2018-08-22T21:42:59.252Z,24.74
2018-08-22T21:45:25.593Z,24.67
2018-08-22T21:47:51.955Z,24.67
2018-08-22T21:50:18.349Z,24.66
2018-08-22T21:52:44.706Z,24.69
2018-08-22T21:55:11.068Z,24.67
2018-08-22T21:57:37.543Z,24.71
2018-08-22T22:00:03.923Z,24.66
2018-08-22T22:02:30.280Z,24.65
2018-08-22T22:04:56.753Z,24.62
2018-08-22T22:07:23.148Z,24.61
2018-08-22T22:09:49.549Z,24.56
2018-08-22T22:12:15.987Z,24.61
2018-08-22T22:14:42.345Z,24.57
2018-08-22T22:17:08.925Z,24.53
2018-08-22T22:19:35.330Z,24.53
2018-08-22T22:22:01.774Z,24.53
2018-08-22T22:24:28.237Z,24.49
2018-08-22T22:26:54.631Z,24.49
2018-08-22T22:29:21.077Z,24.52
2018-08-22T22:31:47.607Z,24.51
2018-08-22T22:34:13.981Z,24.43
2018-08-22T22:36:40.506Z,24.40
2018-08-22T22:39:07.040Z,24.41
2018-08-22T22:41:33.412Z,24.45
2018-08-22T22:44:00.005Z,24.45
2018-08-22T22:46:26.455Z,24.43
2018-08-22T22:48:53.042Z,24.40
2018-08-22T22:51:19.378Z,24.39
2018-08-22T22:53:45.779Z,24.41
2018-08-22T22:56:12.177Z,24.38
2018-08-22T22:58:38.604Z,24.35
2018-08-22T23:01:05.036Z,24.37
2018-08-22T23:03:31.417Z,24.37
2018-08-22T23:05:57.881Z,24.33
2018-08-22T23:08:24.342Z,24.30
2018-08-22T23:10:50.797Z,24.31
2018-08-22T23:13:17.265Z,24.31
2018-08-22T23:15:43.654Z,24.31
2018-08-22T23:18:10.040Z,24.26
2018-08-22T23:20:36.512Z,24.27
2018-08-22T23:23:02.892Z,24.26
2018-08-22T23:25:29.304Z,24.22
2018-08-22T23:27:55.812Z,24.25
2018-08-22T23:30:22.234Z,24.26
2018-08-22T23:32:48.704Z,24.27
2018-08-22T23:35:15.124Z,24.23
2018-08-22T23:37:41.496Z,24.23
2018-08-22T23:40:08.069Z,24.22
2018-08-22T23:42:34.431Z,24.20
2018-08-22T23:45:00.862Z,24.22
2018-08-22T23:47:27.387Z,24.17
2018-08-22T23:49:53.843Z,24.16
2018-08-22T23:52:20.263Z,24.17
2018-08-22T23:54:46.622Z,24.13
2018-08-22T23:57:13.062Z,24.09
2018-08-22T23:59:39.496Z,24.12
